Time;durP1;ratioP1;P1;durP2;ratioP2;P2;SDS_P1;SDS_P2;PMS_P1;PMS_P2;Temp;Humidity;BMP_temperature;BMP_pressure;BME280_temperature;BME280_humidity;BME280_pressure;Samples;Min_cycle;Max_cycle;Signal;HPM_P1;HPM_P2
2023/07/16 00:02:02;;;;;;;11.68;4.80;;;;;;;25.16;71.21;99668.06;6090383;23;20042;-83
2023/07/16 00:04:30;;;;;;;13.23;3.97;;;;;;;25.13;71.29;99662.03;6043023;23;20080;-82
2023/07/16 00:06:59;;;;;;;9.00;4.40;;;;;;;25.12;70.89;99638.66;6091202;23;20026;-82
2023/07/16 00:09:25;;;;;;;8.25;3.45;;;;;;;25.10;71.19;99627.19;6065581;23;20096;-82
2023/07/16 00:11:52;;;;;;;6.55;3.58;;;;;;;25.09;71.00;99624.72;6090871;23;20104;-84
2023/07/16 00:14:19;;;;;;;5.85;3.22;;;;;;;25.08;71.14;99633.91;6067346;23;20468;-82
2023/07/16 00:16:46;;;;;;;12.45;4.03;;;;;;;25.07;71.08;99656.72;6090318;23;20391;-83
2023/07/16 00:19:14;;;;;;;7.43;3.47;;;;;;;25.05;71.37;99675.97;6067388;23;21399;-82
2023/07/16 00:21:41;;;;;;;6.38;3.22;;;;;;;25.05;71.17;99667.00;6067039;23;20022;-83
2023/07/16 00:24:07;;;;;;;12.80;3.95;;;;;;;25.04;71.34;99676.22;6019367;23;20048;-83
2023/07/16 00:26:34;;;;;;;6.95;3.20;;;;;;;25.01;71.48;99695.66;6090394;23;20034;-85
2023/07/16 00:29:01;;;;;;;9.38;3.42;;;;;;;24.99;71.45;99704.06;6091673;23;20433;-82
2023/07/16 00:31:28;;;;;;;5.60;3.65;;;;;;;24.97;71.37;99680.91;6043202;23;20030;-83
2023/07/16 00:33:55;;;;;;;6.72;3.47;;;;;;;24.98;71.47;99655.41;6042775;23;21446;-83
2023/07/16 00:36:21;;;;;;;7.38;3.33;;;;;;;24.95;71.12;99664.84;6066756;23;20088;-83
2023/07/16 00:38:49;;;;;;;8.98;3.60;;;;;;;24.95;71.32;99681.16;6019468;23;20022;-82
2023/07/16 00:41:16;;;;;;;6.95;3.97;;;;;;;24.94;71.13;99684.13;6045093;23;20336;-82
2023/07/16 00:43:43;;;;;;;6.85;3.13;;;;;;;24.89;71.31;99644.88;6089849;23;20053;-82
2023/07/16 00:46:11;;;;;;;9.27;3.83;;;;;;;24.90;71.31;99641.09;6067274;23;20037;-83
2023/07/16 00:48:38;;;;;;;7.90;3.75;;;;;;;24.88;71.20;99648.69;6091657;23;20512;-82
2023/07/16 00:51:06;;;;;;;5.40;3.10;;;;;;;24.84;71.03;99669.22;6091126;23;20048;-82
2023/07/16 00:53:32;;;;;;;11.52;3.80;;;;;;;24.83;71.63;99670.28;6042142;23;20026;-82
2023/07/16 00:55:59;;;;;;;11.30;3.42;;;;;;;24.82;71.44;99651.50;6044478;23;20024;-82
2023/07/16 00:58:26;;;;;;;7.82;3.33;;;;;;;24.84;71.36;99665.66;6091053;23;20100;-82
2023/07/16 01:00:54;;;;;;;12.60;4.32;;;;;;;24.80;70.99;99665.28;6020273;23;20558;-82
2023/07/16 01:03:21;;;;;;;7.57;3.10;;;;;;;24.80;70.52;99667.19;6043007;23;20018;-83
2023/07/16 01:06:19;;;;;;;7.38;3.33;;;;;;;24.69;70.83;99661.50;6066377;23;20026;-83
2023/07/16 01:09:22;;;;;;;8.57;3.00;;;;;;;24.65;70.41;99682.03;6065157;23;20018;-83
2023/07/16 01:11:49;;;;;;;6.57;4.03;;;;;;;24.71;70.25;99677.56;6090156;23;20024;-82
2023/07/16 01:14:17;;;;;;;5.72;2.97;;;;;;;24.71;70.17;99691.13;6042924;23;20026;-82
2023/07/16 01:16:44;;;;;;;10.13;3.35;;;;;;;24.70;69.48;99675.88;6091206;23;20020;-83
2023/07/16 01:19:13;;;;;;;4.63;2.83;;;;;;;24.66;69.50;99686.41;6091165;23;20022;-83
2023/07/16 01:22:06;;;;;;;5.18;2.67;;;;;;;24.61;69.65;99718.03;6043363;23;20427;-83
2023/07/16 01:25:04;;;;;;;4.35;2.75;;;;;;;24.59;69.60;99753.53;6065676;23;20351;-83
2023/07/16 01:27:31;;;;;;;5.72;2.88;;;;;;;24.62;69.81;99754.97;6066229;23;20426;-82
2023/07/16 01:30:02;;;;;;;8.55;2.65;;;;;;;24.60;69.40;99757.06;6090250;23;20081;-83
2023/07/16 01:32:31;;;;;;;6.53;3.08;;;;;;;24.58;69.18;99765.47;6066552;23;20141;-82
2023/07/16 01:35:02;;;;;;;5.25;2.58;;;;;;;24.59;69.20;99763.56;6065290;23;20093;-83
2023/07/16 01:37:29;;;;;;;14.70;3.47;;;;;;;24.57;68.48;99749.41;6042531;23;20476;-84
2023/07/16 01:39:56;;;;;;;4.03;2.40;;;;;;;24.56;68.22;99761.31;6067073;23;20014;-83
2023/07/16 01:42:22;;;;;;;4.05;2.63;;;;;;;24.54;67.96;99756.09;6066524;23;20022;-83
2023/07/16 01:44:49;;;;;;;6.25;2.83;;;;;;;24.53;67.62;99743.59;6064711;23;20212;-85
2023/07/16 01:47:52;;;;;;;4.88;2.72;;;;;;;24.38;68.05;99733.13;6067351;23;20462;-83
2023/07/16 01:50:19;;;;;;;11.73;3.92;;;;;;;24.46;67.38;99715.72;6042870;23;20076;-83
2023/07/16 01:52:47;;;;;;;6.05;3.25;;;;;;;24.46;67.37;99751.00;6065333;23;20026;-83
2023/07/16 01:55:13;;;;;;;7.32;2.45;;;;;;;24.43;67.07;99751.44;6042513;23;20049;-83
2023/07/16 01:57:40;;;;;;;5.35;2.75;;;;;;;24.41;67.15;99743.50;6066506;23;20312;-83
2023/07/16 02:00:08;;;;;;;4.80;2.70;;;;;;;24.40;65.94;99757.28;6041830;23;20094;-83
2023/07/16 02:02:44;;;;;;;7.55;3.00;;;;;;;24.35;66.37;99771.56;6091574;23;20032;-83
2023/07/16 02:05:14;;;;;;;11.45;3.10;;;;;;;24.34;66.15;99766.34;6043877;23;22753;-83
2023/07/16 02:07:41;;;;;;;8.50;2.50;;;;;;;24.31;66.16;99743.22;6042841;23;20033;-83
2023/07/16 02:10:08;;;;;;;7.05;2.88;;;;;;;24.29;66.12;99758.06;6065801;23;20029;-83
2023/07/16 02:12:35;;;;;;;7.70;2.63;;;;;;;24.25;66.02;99768.56;6090175;23;20041;-85
2023/07/16 02:15:02;;;;;;;9.63;3.00;;;;;;;24.23;66.00;99784.25;6066247;23;20679;-83
2023/07/16 02:17:34;;;;;;;4.60;2.63;;;;;;;24.18;65.76;99778.66;6043397;23;20105;-83
2023/07/16 02:20:01;;;;;;;6.70;2.28;;;;;;;24.19;64.96;99791.16;6042350;23;20077;-83
2023/07/16 02:22:28;;;;;;;7.47;2.63;;;;;;;24.16;65.19;99797.03;6066045;23;20026;-84
2023/07/16 02:24:56;;;;;;;11.13;3.20;;;;;;;24.14;65.39;99799.16;6067021;23;20386;-83
2023/07/16 02:27:23;;;;;;;4.85;2.67;;;;;;;24.06;65.87;99792.13;6019223;23;20026;-83
2023/07/16 02:29:50;;;;;;;10.52;2.90;;;;;;;24.07;65.45;99795.66;6042755;23;20029;-84
2023/07/16 02:32:16;;;;;;;6.88;2.53;;;;;;;24.07;64.82;99798.38;6090681;23;20014;-84
2023/07/16 02:34:43;;;;;;;8.90;2.70;;;;;;;24.04;64.73;99799.66;6018266;23;20029;-84
2023/07/16 02:37:10;;;;;;;6.00;2.60;;;;;;;24.02;64.34;99805.34;6018608;23;20478;-84
2023/07/16 02:39:38;;;;;;;6.35;2.40;;;;;;;24.00;64.44;99812.84;6066970;23;20025;-83
2023/07/16 02:42:05;;;;;;;5.32;2.97;;;;;;;23.95;64.51;99818.13;6091084;23;20350;-83
2023/07/16 02:44:32;;;;;;;6.22;2.53;;;;;;;23.91;64.24;99814.19;6065678;23;20033;-84
2023/07/16 02:46:59;;;;;;;7.93;3.75;;;;;;;23.89;64.27;99810.91;6068567;23;20657;-84
2023/07/16 02:49:26;;;;;;;6.35;3.00;;;;;;;23.88;64.40;99811.09;6045106;23;20032;-83
2023/07/16 02:51:52;;;;;;;6.82;2.95;;;;;;;23.86;64.16;99815.91;6045741;23;20050;-85
2023/07/16 02:54:19;;;;;;;7.82;2.72;;;;;;;23.84;64.57;99818.88;6068262;23;20586;-83
2023/07/16 02:56:47;;;;;;;9.23;2.90;;;;;;;23.83;64.70;99815.31;6118377;23;20354;-83
2023/07/16 02:59:13;;;;;;;8.27;3.08;;;;;;;23.81;64.68;99827.44;6069289;23;22580;-83
2023/07/16 03:01:40;;;;;;;6.95;2.85;;;;;;;23.80;64.93;99825.78;6068180;23;20084;-83
2023/07/16 03:04:08;;;;;;;4.30;2.53;;;;;;;23.76;65.01;99811.84;6043573;23;20088;-83
2023/07/16 03:06:34;;;;;;;6.25;2.42;;;;;;;23.77;64.73;99823.53;6092750;23;20068;-83
2023/07/16 03:09:01;;;;;;;6.82;2.90;;;;;;;23.75;64.87;99818.31;6067687;23;20025;-83
2023/07/16 03:11:29;;;;;;;4.95;2.70;;;;;;;23.76;64.89;99822.69;6068428;23;20032;-83
2023/07/16 03:13:56;;;;;;;12.23;3.10;;;;;;;23.72;64.99;99815.19;6044511;23;20030;-85
2023/07/16 03:16:23;;;;;;;9.23;3.08;;;;;;;23.73;64.94;99827.72;6068398;23;20048;-83
2023/07/16 03:18:50;;;;;;;8.52;2.70;;;;;;;23.70;64.90;99830.84;6067926;23;20026;-83
2023/07/16 03:21:16;;;;;;;7.85;3.08;;;;;;;23.68;64.84;99839.19;6092493;23;20022;-82
2023/07/16 03:23:43;;;;;;;11.65;3.15;;;;;;;23.66;65.29;99837.75;6068166;23;20028;-83
2023/07/16 03:26:10;;;;;;;11.05;2.95;;;;;;;23.67;65.40;99836.72;6092614;23;20080;-83
2023/07/16 03:28:37;;;;;;;5.55;2.60;;;;;;;23.65;65.23;99839.63;6068069;23;20044;-83
2023/07/16 03:31:06;;;;;;;8.10;3.08;;;;;;;23.65;65.01;99839.63;6092608;23;20135;-83
2023/07/16 03:33:35;;;;;;;12.25;3.00;;;;;;;23.62;65.25;99837.38;6021907;23;20022;-83
2023/07/16 03:36:03;;;;;;;10.13;3.35;;;;;;;23.62;65.23;99834.66;6091843;23;20316;-83
2023/07/16 03:38:30;;;;;;;11.88;3.90;;;;;;;23.56;65.33;99828.25;6045264;23;20323;-83
2023/07/16 03:40:57;;;;;;;11.07;3.83;;;;;;;23.57;64.54;99829.06;6068184;23;20396;-83
2023/07/16 03:43:24;;;;;;;10.23;3.28;;;;;;;23.56;65.41;99830.09;6040360;23;20026;-83
2023/07/16 03:45:56;;;;;;;10.73;3.25;;;;;;;23.55;65.22;99842.84;6069092;23;20402;-83
2023/07/16 03:48:23;;;;;;;14.05;3.53;;;;;;;23.55;65.45;99848.25;6044495;23;20179;-86
2023/07/16 03:50:50;;;;;;;12.85;3.15;;;;;;;23.53;65.39;99844.94;6044482;23;20044;-84
2023/07/16 03:53:17;;;;;;;6.30;2.97;;;;;;;23.52;65.51;99851.41;6044002;23;20406;-83
2023/07/16 03:55:44;;;;;;;8.15;3.03;;;;;;;23.53;65.56;99853.06;6020600;23;20030;-83
2023/07/16 03:58:11;;;;;;;8.55;3.63;;;;;;;23.53;65.24;99863.91;6067539;23;20026;-83
2023/07/16 04:00:38;;;;;;;8.40;3.22;;;;;;;23.53;65.08;99866.63;6044288;23;20024;-83
2023/07/16 04:03:05;;;;;;;14.40;2.95;;;;;;;23.48;65.10;99860.19;6044490;23;20344;-83
2023/07/16 04:05:31;;;;;;;11.30;3.67;;;;;;;23.47;65.25;99870.22;6091635;23;20077;-83
2023/07/16 04:07:58;;;;;;;10.32;2.85;;;;;;;23.46;65.35;99873.13;6067441;23;20026;-83
2023/07/16 04:10:25;;;;;;;8.50;3.20;;;;;;;23.41;65.84;99868.41;6068653;23;20045;-82
2023/07/16 04:12:52;;;;;;;9.98;2.88;;;;;;;23.43;66.03;99874.41;6067017;23;20402;-83
2023/07/16 04:15:18;;;;;;;9.13;2.63;;;;;;;23.43;64.78;99885.25;6067418;23;20018;-83
2023/07/16 04:17:45;;;;;;;9.43;2.90;;;;;;;23.42;65.39;99894.44;6068170;23;20521;-83
2023/07/16 04:20:12;;;;;;;9.18;3.03;;;;;;;23.41;65.15;99892.78;6067912;23;20025;-83
2023/07/16 04:22:39;;;;;;;9.25;3.05;;;;;;;23.42;65.06;99901.72;6043384;23;20092;-83
2023/07/16 04:25:06;;;;;;;10.95;3.78;;;;;;;23.41;65.12;99903.63;6019114;23;20100;-83
2023/07/16 04:27:33;;;;;;;11.52;2.70;;;;;;;23.40;64.91;99901.94;6067449;23;20089;-83
2023/07/16 04:30:00;;;;;;;9.30;3.05;;;;;;;23.41;64.50;99895.50;6044445;23;20112;-83
2023/07/16 04:32:26;;;;;;;7.68;2.83;;;;;;;23.43;63.66;99904.22;6117618;23;20022;-83
2023/07/16 04:34:53;;;;;;;12.52;3.15;;;;;;;23.39;63.67;99909.25;6089792;23;20034;-83
2023/07/16 04:37:20;;;;;;;12.45;3.05;;;;;;;23.39;62.95;99897.59;6091252;23;20013;-85
2023/07/16 04:39:47;;;;;;;11.10;2.80;;;;;;;23.38;62.89;99904.03;6067950;23;20030;-83
2023/07/16 04:42:14;;;;;;;11.23;2.88;;;;;;;23.35;63.10;99894.47;6068213;23;20049;-83
2023/07/16 04:44:40;;;;;;;8.10;3.15;;;;;;;23.33;62.92;99888.44;6066670;23;20017;-83
2023/07/16 04:47:07;;;;;;;16.30;4.57;;;;;;;23.33;62.99;99887.59;6090538;23;20383;-83
2023/07/16 04:49:35;;;;;;;11.43;3.05;;;;;;;23.35;62.70;99909.88;6089826;23;20037;-83
2023/07/16 04:52:02;;;;;;;13.85;3.03;;;;;;;23.33;62.70;99930.94;6066863;23;20018;-83
2023/07/16 04:54:29;;;;;;;10.00;3.67;;;;;;;23.36;62.23;99935.97;6042860;23;20014;-84
2023/07/16 04:56:55;;;;;;;11.00;3.03;;;;;;;23.32;62.65;99923.88;6042948;23;20466;-86
2023/07/16 04:59:22;;;;;;;10.52;3.42;;;;;;;23.33;62.92;99930.94;6020113;23;20069;-83
2023/07/16 05:01:49;;;;;;;12.40;3.15;;;;;;;23.31;62.39;99927.66;6066442;23;20037;-83
2023/07/16 05:04:16;;;;;;;18.45;3.30;;;;;;;23.32;62.56;99930.13;6066482;23;20080;-83
2023/07/16 05:06:43;;;;;;;10.40;3.03;;;;;;;23.31;62.18;99935.78;6067350;23;20037;-83
2023/07/16 05:09:10;;;;;;;14.77;3.50;;;;;;;23.30;62.47;99937.63;6042645;23;20026;-84
2023/07/16 05:11:38;;;;;;;14.68;2.90;;;;;;;23.29;62.79;99944.09;6067459;23;20053;-83
2023/07/16 05:14:04;;;;;;;12.52;2.67;;;;;;;23.30;62.83;99951.19;6043772;23;20339;-83
2023/07/16 05:16:31;;;;;;;9.40;2.63;;;;;;;23.30;62.64;99962.03;6065925;23;20022;-83
2023/07/16 05:18:58;;;;;;;18.00;3.65;;;;;;;23.27;63.18;99962.47;6090755;23;20066;-83
2023/07/16 05:21:25;;;;;;;17.02;3.05;;;;;;;23.27;62.85;99957.03;6090484;23;20025;-83
2023/07/16 05:23:52;;;;;;;11.70;3.03;;;;;;;23.27;63.01;99965.16;6065350;23;20093;-84
2023/07/16 05:26:18;;;;;;;10.65;3.05;;;;;;;23.26;62.38;99965.41;6043442;23;20052;-83
2023/07/16 05:28:45;;;;;;;18.75;3.15;;;;;;;23.27;62.23;99967.88;6066393;23;20022;-82
2023/07/16 05:31:12;;;;;;;12.38;3.05;;;;;;;23.27;61.83;99972.47;6019160;23;20029;-83
2023/07/16 05:33:39;;;;;;;14.25;3.22;;;;;;;23.25;62.65;99978.09;6066255;23;20096;-83
2023/07/16 05:36:06;;;;;;;10.52;2.90;;;;;;;23.26;62.27;99976.25;6066176;23;20034;-83
2023/07/16 05:38:33;;;;;;;13.55;3.65;;;;;;;23.25;62.39;99980.81;6019764;23;20025;-83
2023/07/16 05:41:02;;;;;;;17.65;3.28;;;;;;;23.26;62.17;99977.06;6065346;23;20097;-83
2023/07/16 05:43:29;;;;;;;19.58;3.25;;;;;;;23.28;62.25;99979.53;6018015;23;20030;-83
2023/07/16 05:45:55;;;;;;;6.68;2.88;;;;;;;23.37;61.83;99983.69;6065819;23;20030;-85
2023/07/16 05:48:24;;;;;;;12.23;2.60;;;;;;;23.43;61.67;99996.34;6066703;23;20101;-83
2023/07/16 05:50:51;;;;;;;9.90;3.15;;;;;;;23.49;61.46;99991.97;6065143;23;20030;-84
2023/07/16 05:53:17;;;;;;;9.05;3.10;;;;;;;23.46;61.17;99974.25;6042594;23;20022;-84
2023/07/16 05:55:44;;;;;;;15.15;3.10;;;;;;;23.48;61.25;99972.13;6066865;23;20026;-83
2023/07/16 05:58:11;;;;;;;12.35;3.15;;;;;;;23.55;61.29;99969.41;6043043;23;20073;-83
2023/07/16 06:00:39;;;;;;;8.20;3.03;;;;;;;23.59;60.90;99979.59;6065596;23;20025;-85
2023/07/16 06:03:06;;;;;;;11.13;2.80;;;;;;;23.62;60.54;99990.00;6066621;23;20022;-84
2023/07/16 06:05:34;;;;;;;9.95;3.17;;;;;;;23.57;60.38;99984.41;6042689;23;20026;-84
2023/07/16 06:08:01;;;;;;;14.40;3.60;;;;;;;23.57;60.99;99997.97;6066134;23;20026;-84
2023/07/16 06:10:28;;;;;;;10.48;3.67;;;;;;;23.59;60.15;99992.31;6066204;23;20014;-84
2023/07/16 06:12:55;;;;;;;10.57;3.00;;;;;;;23.55;60.14;99991.09;6065759;23;20022;-83
2023/07/16 06:15:22;;;;;;;14.43;3.30;;;;;;;23.54;60.23;100006.53;6090234;23;20026;-84
2023/07/16 06:17:48;;;;;;;12.52;3.10;;;;;;;23.48;60.50;99995.72;6066908;23;20021;-83
2023/07/16 06:20:15;;;;;;;16.00;3.50;;;;;;;23.43;60.81;99996.34;6043040;23;20455;-84
2023/07/16 06:22:42;;;;;;;9.35;2.90;;;;;;;23.40;60.79;99992.19;6066969;23;20084;-85
2023/07/16 06:25:10;;;;;;;11.20;3.40;;;;;;;23.43;60.41;99990.09;6044278;23;20346;-84
2023/07/16 06:27:37;;;;;;;10.10;3.17;;;;;;;23.40;60.79;99989.47;6092426;23;20350;-84
2023/07/16 06:30:05;;;;;;;11.40;3.35;;;;;;;23.50;60.94;99996.31;6067180;23;20041;-84
2023/07/16 06:32:32;;;;;;;14.55;3.40;;;;;;;23.55;60.99;100002.75;6044547;23;20022;-83
2023/07/16 06:34:59;;;;;;;15.00;3.55;;;;;;;23.61;60.58;100006.50;6091141;23;20026;-84
2023/07/16 06:37:26;;;;;;;10.43;3.00;;;;;;;23.61;60.36;100004.63;6067571;23;20069;-84
2023/07/16 06:39:53;;;;;;;16.48;3.60;;;;;;;23.66;60.12;100008.53;6067421;23;20446;-84
2023/07/16 06:42:20;;;;;;;13.52;3.90;;;;;;;23.61;59.22;100023.59;6067818;23;20029;-84
2023/07/16 06:44:48;;;;;;;5.45;3.10;;;;;;;23.50;58.76;100023.44;6020760;23;20030;-85
2023/07/16 06:47:15;;;;;;;9.60;3.20;;;;;;;23.50;59.37;100007.16;6091905;23;20048;-84
2023/07/16 06:49:42;;;;;;;10.60;3.60;;;;;;;23.47;59.21;100011.16;6067497;23;20363;-83
2023/07/16 06:52:19;;;;;;;11.20;3.53;;;;;;;23.36;58.29;100026.22;6043693;23;20029;-83
2023/07/16 06:54:45;;;;;;;10.48;3.78;;;;;;;23.45;59.34;100020.53;6090429;23;20627;-83
2023/07/16 06:57:12;;;;;;;11.88;3.20;;;;;;;23.49;59.42;100016.34;6043106;23;20029;-83
2023/07/16 06:59:39;;;;;;;11.40;3.70;;;;;;;23.53;59.73;100012.16;6091471;23;20030;-84
2023/07/16 07:02:06;;;;;;;12.73;3.75;;;;;;;23.52;58.65;100016.75;6068356;23;20052;-84
2023/07/16 07:04:33;;;;;;;14.20;4.75;;;;;;;23.46;59.01;100009.50;6043859;23;20022;-83
2023/07/16 07:07:00;;;;;;;10.68;3.50;;;;;;;23.47;59.26;100003.00;6066808;23;20032;-83
2023/07/16 07:09:26;;;;;;;11.43;3.05;;;;;;;23.43;58.72;99992.81;6090704;23;20024;-83
2023/07/16 07:11:53;;;;;;;11.63;3.65;;;;;;;23.45;57.91;100006.97;6091024;23;20018;-83
2023/07/16 07:14:20;;;;;;;11.25;3.95;;;;;;;23.40;58.07;100007.63;6090708;23;20018;-83
2023/07/16 07:16:47;;;;;;;14.23;4.43;;;;;;;23.38;58.33;100001.59;6064375;23;20760;-81
2023/07/16 07:19:13;;;;;;;14.07;3.75;;;;;;;23.45;58.70;100010.53;6063627;23;20033;-81
2023/07/16 07:21:40;;;;;;;12.00;3.70;;;;;;;23.52;58.97;100010.50;6085707;23;20045;-81
2023/07/16 07:24:07;;;;;;;14.50;5.45;;;;;;;23.56;58.50;100022.56;6086154;23;20033;-80
2023/07/16 07:26:34;;;;;;;11.15;3.67;;;;;;;23.46;58.10;100025.75;6065139;23;20018;-81
2023/07/16 07:29:00;;;;;;;12.48;4.07;;;;;;;23.46;58.23;100027.59;6114167;23;20089;-80
2023/07/16 07:31:27;;;;;;;21.38;4.20;;;;;;;23.47;57.96;100023.88;6088148;23;20045;-81
2023/07/16 07:33:54;;;;;;;14.48;4.00;;;;;;;23.44;58.55;100027.84;6087529;23;20021;-80
2023/07/16 07:36:21;;;;;;;11.30;4.63;;;;;;;23.47;59.10;100018.44;6088515;23;20032;-81
2023/07/16 07:38:47;;;;;;;14.02;4.68;;;;;;;23.46;59.05;100011.34;6064203;23;20036;-81
2023/07/16 07:41:14;;;;;;;13.55;4.20;;;;;;;23.51;58.49;100023.22;6065238;23;20025;-81
2023/07/16 07:43:41;;;;;;;8.77;3.60;;;;;;;23.49;58.46;100027.19;6086940;23;20345;-82
2023/07/16 07:46:08;;;;;;;14.07;4.55;;;;;;;23.49;58.92;100027.19;6087731;23;20085;-83
2023/07/16 07:48:35;;;;;;;16.13;4.43;;;;;;;23.49;58.92;100028.03;6065742;23;20085;-81
2023/07/16 07:51:02;;;;;;;12.82;3.97;;;;;;;23.49;59.01;100030.72;6086352;23;20029;-81
2023/07/16 07:53:28;;;;;;;21.98;4.22;;;;;;;23.53;58.57;100036.53;6063751;23;20088;-81
2023/07/16 07:55:55;;;;;;;10.80;3.78;;;;;;;23.52;58.08;100035.72;6064532;23;20089;-81
2023/07/16 07:58:23;;;;;;;14.82;4.88;;;;;;;23.53;58.83;100040.09;6087800;23;20488;-82
2023/07/16 08:00:49;;;;;;;10.23;4.15;;;;;;;23.54;58.33;100027.38;6087548;23;20048;-80
2023/07/16 08:03:16;;;;;;;12.60;3.60;;;;;;;23.58;58.55;100032.16;6086820;23;20050;-81
2023/07/16 08:05:43;;;;;;;11.02;3.88;;;;;;;23.59;57.28;100036.53;6016387;23;20354;-82
2023/07/16 08:08:10;;;;;;;12.00;3.80;;;;;;;23.61;56.89;100055.31;6086462;23;20048;-81
2023/07/16 08:10:37;;;;;;;9.77;3.97;;;;;;;23.60;57.05;100042.78;6113309;23;20454;-81
2023/07/16 08:13:04;;;;;;;11.25;3.88;;;;;;;23.60;56.88;100049.03;6086254;23;20088;-83
2023/07/16 08:15:30;;;;;;;12.10;3.20;;;;;;;23.64;57.54;100056.75;6064754;23;20018;-82
2023/07/16 08:17:59;;;;;;;12.15;4.22;;;;;;;23.70;56.82;100053.16;6063359;23;20034;-82
2023/07/16 08:20:26;;;;;;;11.73;4.00;;;;;;;23.65;56.45;100066.53;6113655;23;20817;-82
2023/07/16 08:22:53;;;;;;;10.07;3.40;;;;;;;23.61;56.76;100049.88;6063425;23;20076;-82
2023/07/16 08:25:20;;;;;;;16.83;4.82;;;;;;;23.58;56.40;100067.41;6087924;23;20018;-82
2023/07/16 08:27:47;;;;;;;20.70;4.53;;;;;;;23.56;55.95;100064.06;6088069;23;20029;-82
2023/07/16 08:30:14;;;;;;;13.88;4.05;;;;;;;23.55;56.60;100050.72;6089644;23;20394;-81
2023/07/16 08:32:41;;;;;;;25.58;4.97;;;;;;;23.56;55.98;100053.22;6038258;23;20050;-82
2023/07/16 08:35:12;;;;;;;11.73;3.53;;;;;;;23.60;55.83;100048.19;6058015;23;20029;-82
2023/07/16 08:37:38;;;;;;;13.95;3.45;;;;;;;23.60;55.34;100040.06;6103491;23;20378;-83
2023/07/16 08:40:06;;;;;;;13.15;3.72;;;;;;;23.65;53.78;100028.56;6102859;23;20034;-80
2023/07/16 08:42:33;;;;;;;12.55;3.70;;;;;;;23.64;55.20;100035.88;6083448;23;20029;-82
2023/07/16 08:45:00;;;;;;;14.50;3.97;;;;;;;23.67;55.45;100035.44;6112662;23;20053;-82
2023/07/16 08:47:28;;;;;;;8.93;4.03;;;;;;;23.67;55.21;100040.88;6089093;23;20032;-82
2023/07/16 08:49:55;;;;;;;17.10;4.53;;;;;;;23.65;55.30;100051.09;6087531;23;20044;-81
2023/07/16 08:52:23;;;;;;;12.80;3.40;;;;;;;23.60;55.05;100051.72;6100547;23;20033;-82
2023/07/16 08:54:50;;;;;;;10.40;3.95;;;;;;;23.56;54.54;100047.81;6111319;23;20018;-81
2023/07/16 08:57:17;;;;;;;13.77;3.25;;;;;;;23.55;54.52;100045.31;6089312;23;20052;-81
2023/07/16 08:59:44;;;;;;;12.43;4.35;;;;;;;23.53;54.01;100053.63;6062888;23;20045;-82
2023/07/16 09:02:11;;;;;;;12.77;3.70;;;;;;;23.51;53.69;100041.34;6089656;23;20052;-81
2023/07/16 09:04:38;;;;;;;12.05;3.90;;;;;;;23.50;54.12;100045.13;6086960;23;20026;-82
2023/07/16 09:07:05;;;;;;;11.02;3.72;;;;;;;23.53;53.75;100045.50;6087546;23;20127;-82
2023/07/16 09:09:32;;;;;;;14.77;3.53;;;;;;;23.58;53.58;100050.28;6064330;23;20428;-82
2023/07/16 09:11:59;;;;;;;12.25;3.88;;;;;;;23.61;52.83;100056.13;6087540;23;20082;-81
2023/07/16 09:14:25;;;;;;;8.05;3.50;;;;;;;23.67;53.32;100056.31;6086608;23;20084;-82
2023/07/16 09:16:53;;;;;;;10.18;3.92;;;;;;;23.78;53.66;100047.50;6063610;23;20024;-81
2023/07/16 09:19:21;;;;;;;20.58;4.20;;;;;;;23.73;52.82;100040.03;6063937;23;20042;-81
2023/07/16 09:21:48;;;;;;;18.48;4.22;;;;;;;23.76;53.63;100044.19;6064551;23;20025;-81
2023/07/16 09:24:16;;;;;;;16.13;4.10;;;;;;;23.78;53.68;100045.63;6039576;23;20398;-81
2023/07/16 09:26:55;;;;;;;10.68;4.05;;;;;;;23.79;53.75;100043.75;6088662;23;21760;-81
2023/07/16 09:29:22;;;;;;;13.35;3.85;;;;;;;23.86;52.63;100047.25;6113509;23;20489;-81
2023/07/16 09:31:54;;;;;;;12.82;4.93;;;;;;;23.87;52.44;100043.50;6085367;23;20028;-82
2023/07/16 09:34:21;;;;;;;16.90;4.07;;;;;;;23.92;52.65;100042.84;6086670;23;20407;-81
2023/07/16 09:36:49;;;;;;;13.27;4.15;;;;;;;23.94;51.93;100044.31;6113362;23;20421;-81
2023/07/16 09:39:19;;;;;;;13.77;4.35;;;;;;;23.86;51.59;100044.53;6086007;23;20101;-82
2023/07/16 09:41:48;;;;;;;16.70;4.07;;;;;;;23.90;51.59;100040.34;6086518;23;20029;-82
2023/07/16 09:44:18;;;;;;;12.07;4.50;;;;;;;23.93;51.74;100033.66;6085361;23;20031;-81
2023/07/16 09:46:46;;;;;;;13.68;4.28;;;;;;;24.00;51.89;100029.03;6087522;23;20026;-81
2023/07/16 09:49:15;;;;;;;11.52;4.18;;;;;;;24.06;51.58;100039.00;6063006;23;20030;-80
2023/07/16 09:51:43;;;;;;;13.18;4.43;;;;;;;24.08;51.69;100039.59;6087607;23;20358;-82
2023/07/16 09:54:12;;;;;;;15.93;3.45;;;;;;;24.12;51.18;100029.13;6062271;23;20033;-81
2023/07/16 09:56:43;;;;;;;9.07;4.10;;;;;;;24.14;51.37;100024.31;6086512;23;20025;-81
2023/07/16 09:59:13;;;;;;;14.70;3.65;;;;;;;24.16;51.27;100031.19;6087692;23;20771;-81
2023/07/16 10:01:40;;;;;;;11.23;3.75;;;;;;;24.20;51.58;100027.00;6086526;23;20101;-81
2023/07/16 10:04:15;;;;;;;9.68;3.92;;;;;;;24.25;51.59;100031.78;6062449;23;20105;-81
2023/07/16 10:06:56;;;;;;;10.75;4.00;;;;;;;24.26;50.68;100026.09;6088718;23;20025;-81
2023/07/16 10:09:56;;;;;;;9.25;3.80;;;;;;;24.20;50.76;100024.28;6063085;23;20018;-81
2023/07/16 10:12:25;;;;;;;8.13;3.78;;;;;;;24.34;50.79;100024.19;6062414;23;20461;-80
2023/07/16 10:14:53;;;;;;;9.65;4.63;;;;;;;24.33;51.43;100026.06;6062950;23;20034;-82
2023/07/16 10:17:22;;;;;;;8.45;3.17;;;;;;;24.35;50.60;100023.97;6063365;23;20100;-81
2023/07/16 10:19:59;;;;;;;10.82;3.53;;;;;;;24.39;50.68;100014.31;6062098;23;20041;-80
2023/07/16 10:22:36;;;;;;;12.50;3.67;;;;;;;24.44;50.99;100021.78;6087294;23;20108;-80
2023/07/16 10:25:21;;;;;;;11.10;3.30;;;;;;;24.47;50.23;100035.81;6086242;23;20757;-81
2023/07/16 10:27:50;;;;;;;7.95;3.10;;;;;;;24.54;50.08;100033.00;6110987;23;20025;-82
2023/07/16 10:30:17;;;;;;;11.32;3.78;;;;;;;24.56;49.64;100030.09;6039156;23;20022;-80
2023/07/16 10:32:44;;;;;;;9.77;3.33;;;;;;;24.54;49.83;100027.59;6112563;23;20338;-80
2023/07/16 10:35:12;;;;;;;7.43;3.15;;;;;;;24.59;50.14;100027.75;6063019;23;20080;-81
2023/07/16 10:37:39;;;;;;;12.10;3.38;;;;;;;24.61;49.40;100031.06;6085523;23;20025;-80
2023/07/16 10:40:10;;;;;;;9.10;3.55;;;;;;;24.59;49.74;100035.88;6086270;23;20601;-80
2023/07/16 10:42:37;;;;;;;10.55;3.42;;;;;;;24.65;49.93;100032.31;6086164;23;20113;-81
2023/07/16 10:45:04;;;;;;;9.43;3.25;;;;;;;24.59;49.42;100029.63;6086359;23;20105;-81
2023/07/16 10:47:33;;;;;;;9.77;3.33;;;;;;;24.56;49.89;100032.81;6063155;23;20093;-80
2023/07/16 10:50:03;;;;;;;15.63;3.80;;;;;;;24.57;50.24;100032.56;6085013;23;20031;-81
2023/07/16 10:52:29;;;;;;;13.73;3.85;;;;;;;24.51;50.69;100028.03;6063854;23;20021;-80
2023/07/16 10:54:57;;;;;;;9.93;3.50;;;;;;;24.45;50.50;100028.91;6087418;23;20026;-80
2023/07/16 10:57:25;;;;;;;10.73;3.40;;;;;;;24.41;50.29;100025.78;6112191;23;20053;-81
2023/07/16 10:59:57;;;;;;;14.52;3.63;;;;;;;24.40;50.40;100032.28;6063898;23;20022;-80
2023/07/16 11:02:25;;;;;;;12.77;3.67;;;;;;;24.35;50.50;100032.09;6088293;23;20517;-80
2023/07/16 11:04:57;;;;;;;8.60;4.07;;;;;;;24.33;50.54;100026.06;6086858;23;20421;-81
2023/07/16 11:07:24;;;;;;;12.48;3.78;;;;;;;24.30;50.55;100026.50;6113267;23;20021;-80
2023/07/16 11:09:53;;;;;;;14.65;3.72;;;;;;;24.27;49.97;100026.94;6064957;23;20057;-81
2023/07/16 11:12:23;;;;;;;13.85;3.63;;;;;;;24.21;50.15;100025.94;6088604;23;20025;-80
2023/07/16 11:14:52;;;;;;;11.20;3.78;;;;;;;24.22;49.94;100030.34;6113161;23;20347;-80
2023/07/16 11:17:19;;;;;;;12.95;3.78;;;;;;;24.23;50.03;100021.13;6088021;23;20073;-80
2023/07/16 11:19:47;;;;;;;10.30;4.53;;;;;;;24.22;50.48;100030.34;6089666;23;20029;-80
2023/07/16 11:22:15;;;;;;;12.48;3.45;;;;;;;24.26;50.85;100022.56;6114429;23;20022;-81
2023/07/16 11:24:46;;;;;;;11.63;3.63;;;;;;;24.30;49.99;100025.66;6063510;23;20025;-81
2023/07/16 11:27:22;;;;;;;10.23;3.95;;;;;;;24.29;50.28;100005.84;6064922;23;20030;-81
2023/07/16 11:29:56;;;;;;;11.60;3.67;;;;;;;24.33;49.34;100000.81;6114561;23;20026;-81